Time;durP1;ratioP1;P1;durP2;ratioP2;P2;SDS_P1;SDS_P2;PMS_P1;PMS_P2;Temp;Humidity;BMP_temperature;BMP_pressure;BME280_temperature;BME280_humidity;BME280_pressure;Samples;Min_cycle;Max_cycle;Signal;HPM_P1;HPM_P2
2022/07/27 00:00:12;;;;;;;4.77;4.47;;;38.00;41.80;;;;;;5056527;28;20459;-66
2022/07/27 00:02:44;;;;;;;4.53;4.23;;;38.00;43.10;;;;;;5055957;28;20443;-66
2022/07/27 00:05:20;;;;;;;4.67;4.37;;;38.00;41.60;;;;;;5060835;28;20461;-66
2022/07/27 00:07:51;;;;;;;4.87;4.47;;;38.00;43.40;;;;;;5062867;28;20449;-66
2022/07/27 00:10:22;;;;;;;4.70;4.40;;;38.00;42.80;;;;;;5060450;28;20471;-66
2022/07/27 00:12:53;;;;;;;4.80;4.50;;;37.90;42.30;;;;;;5061490;28;20474;-67
2022/07/27 00:15:23;;;;;;;4.83;4.43;;;37.90;42.50;;;;;;5061821;28;20494;-67
2022/07/27 00:17:59;;;;;;;4.30;4.10;;;37.90;43.20;;;;;;5062899;28;20470;-67
2022/07/27 00:20:30;;;;;;;4.77;4.47;;;37.90;40.90;;;;;;5046400;28;20453;-67
2022/07/27 00:23:02;;;;;;;5.00;4.70;;;37.90;43.10;;;;;;5058734;28;20507;-66
2022/07/27 00:25:32;;;;;;;4.70;4.40;;;37.70;42.20;;;;;;5066132;28;20479;-67
2022/07/27 00:28:03;;;;;;;4.57;4.27;;;37.70;43.80;;;;;;5061241;28;20497;-67
2022/07/27 00:30:34;;;;;;;4.50;4.10;;;37.80;42.10;;;;;;5060852;28;20478;-67
2022/07/27 00:33:07;;;;;;;4.37;4.07;;;37.70;42.90;;;;;;5060931;28;20464;-67
2022/07/27 00:35:38;;;;;;;4.50;4.10;;;37.60;42.70;;;;;;5068902;28;20467;-66
2022/07/27 00:38:08;;;;;;;4.23;3.93;;;37.50;40.30;;;;;;5067783;28;20466;-67
2022/07/27 00:40:39;;;;;;;4.07;3.77;;;37.50;41.90;;;;;;5063016;28;20497;-67
2022/07/27 00:43:11;;;;;;;3.67;3.47;;;37.50;44.20;;;;;;5064956;28;20483;-68
2022/07/27 00:45:42;;;;;;;3.77;3.57;;;37.50;44.10;;;;;;5059003;28;20874;-68
2022/07/27 00:48:15;;;;;;;4.00;3.70;;;37.50;39.90;;;;;;5074485;28;20438;-69
2022/07/27 00:50:48;;;;;;;3.27;3.07;;;37.40;41.60;;;;;;5072142;28;20455;-70
2022/07/27 00:53:19;;;;;;;4.10;3.80;;;37.40;40.60;;;;;;5068038;28;20470;-68
2022/07/27 00:55:49;;;;;;;4.33;4.03;;;37.30;41.10;;;;;;5060199;28;20487;-69
2022/07/27 00:58:20;;;;;;;3.93;3.63;;;37.20;43.10;;;;;;5067447;28;20454;-72
2022/07/27 01:00:51;;;;;;;3.60;3.30;;;37.10;44.40;;;;;;5065145;28;20459;-69
2022/07/27 01:03:24;;;;;;;4.03;3.80;;;37.00;43.40;;;;;;5062579;28;20505;-70
2022/07/27 01:05:58;;;;;;;3.87;3.57;;;37.00;43.00;;;;;;5056136;28;20459;-68
2022/07/27 01:08:30;;;;;;;4.50;4.17;;;37.10;44.60;;;;;;5075797;28;20463;-69
2022/07/27 01:11:02;;;;;;;4.57;4.27;;;37.20;46.60;;;;;;5071844;28;20462;-67
2022/07/27 01:13:33;;;;;;;4.70;4.37;;;37.00;44.60;;;;;;5064122;28;20808;-67
2022/07/27 01:16:07;;;;;;;4.73;4.43;;;36.90;44.90;;;;;;5060978;28;20466;-69
2022/07/27 01:18:42;;;;;;;3.60;3.40;;;36.70;45.00;;;;;;5059332;28;20454;-68
2022/07/27 01:21:12;;;;;;;4.20;3.90;;;36.70;44.50;;;;;;5052903;28;20474;-67
2022/07/27 01:23:45;;;;;;;4.60;4.27;;;36.70;44.50;;;;;;5056905;28;20483;-67
2022/07/27 01:26:16;;;;;;;4.00;3.80;;;36.60;45.30;;;;;;5054303;28;20479;-66
2022/07/27 01:28:47;;;;;;;3.87;3.60;;;36.50;45.20;;;;;;5054728;28;20478;-66
2022/07/27 01:31:18;;;;;;;4.70;4.30;;;36.50;46.00;;;;;;5057552;28;20471;-68
2022/07/27 01:33:49;;;;;;;4.00;3.70;;;36.40;46.80;;;;;;5054245;28;20492;-67
2022/07/27 01:36:19;;;;;;;4.07;3.77;;;36.30;47.20;;;;;;5054451;28;20462;-66
2022/07/27 01:38:52;;;;;;;4.63;4.23;;;36.20;48.20;;;;;;5054455;28;20472;-67
2022/07/27 01:41:23;;;;;;;4.60;4.30;;;36.20;48.20;;;;;;5054992;28;20469;-68
2022/07/27 01:43:53;;;;;;;4.70;4.40;;;36.10;48.00;;;;;;5055306;28;20494;-67
2022/07/27 01:46:24;;;;;;;4.00;3.70;;;35.90;49.10;;;;;;5054417;28;20474;-67
2022/07/27 01:48:56;;;;;;;4.17;3.90;;;35.90;49.10;;;;;;5054594;28;20462;-69
2022/07/27 01:51:26;;;;;;;5.13;4.73;;;35.80;47.70;;;;;;5052621;28;20470;-68
2022/07/27 01:54:00;;;;;;;5.23;4.87;;;35.70;49.40;;;;;;5056163;28;20466;-68
2022/07/27 01:56:31;;;;;;;5.83;5.43;;;35.60;50.10;;;;;;5063348;28;20489;-69
2022/07/27 01:59:01;;;;;;;5.03;4.63;;;35.60;51.90;;;;;;5062675;28;20475;-69
2022/07/27 02:01:32;;;;;;;4.60;4.30;;;35.50;52.60;;;;;;5065785;28;20468;-69
2022/07/27 02:04:03;;;;;;;4.60;4.30;;;35.50;53.10;;;;;;5057075;28;20584;-69
2022/07/27 02:06:34;;;;;;;4.60;4.30;;;35.40;52.90;;;;;;5060499;28;20478;-69
2022/07/27 02:09:07;;;;;;;5.53;5.03;;;35.40;53.60;;;;;;5074284;28;20447;-70
2022/07/27 02:14:37;;;;;;;4.77;4.47;;;35.20;53.50;;;;;;5015843;28;20517;-68
2022/07/27 02:17:08;;;;;;;5.30;4.93;;;35.10;53.00;;;;;;5019372;28;20446;-67
2022/07/27 02:19:40;;;;;;;4.70;4.30;;;35.00;53.30;;;;;;4985124;28;20449;-67
2022/07/27 02:22:11;;;;;;;4.37;4.07;;;34.90;52.70;;;;;;5001005;28;20478;-67
2022/07/27 02:24:44;;;;;;;5.23;4.83;;;34.80;53.40;;;;;;5003295;28;20502;-66
2022/07/27 02:27:14;;;;;;;4.60;4.30;;;34.80;54.20;;;;;;5005417;28;20484;-67
2022/07/27 02:29:45;;;;;;;4.30;4.00;;;34.80;54.50;;;;;;4990631;28;20466;-66
2022/07/27 02:32:16;;;;;;;4.57;4.17;;;34.70;53.70;;;;;;4999201;28;20459;-66
2022/07/27 02:34:47;;;;;;;3.97;3.67;;;34.50;54.20;;;;;;5001079;28;20468;-66
2022/07/27 02:37:18;;;;;;;4.67;4.37;;;34.40;54.60;;;;;;4999943;28;20447;-66
2022/07/27 02:39:51;;;;;;;4.90;4.50;;;34.20;55.20;;;;;;5016960;28;20466;-66
2022/07/27 02:42:22;;;;;;;3.70;3.50;;;34.00;56.20;;;;;;5014397;28;20485;-66
2022/07/27 02:44:53;;;;;;;3.80;3.60;;;33.80;55.50;;;;;;5000546;28;20512;-66
2022/07/27 02:47:24;;;;;;;4.53;4.23;;;33.70;56.00;;;;;;5007709;28;20466;-66
2022/07/27 02:49:54;;;;;;;4.70;4.40;;;33.70;57.40;;;;;;5058202;28;20467;-66
2022/07/27 02:52:25;;;;;;;4.10;3.90;;;33.60;57.20;;;;;;5060030;28;20463;-66
2022/07/27 02:54:57;;;;;;;4.30;4.00;;;33.60;56.50;;;;;;5080235;28;20447;-66
2022/07/27 02:57:28;;;;;;;4.27;3.93;;;33.60;56.80;;;;;;5058937;28;20501;-66
2022/07/27 02:59:59;;;;;;;4.03;3.77;;;33.50;58.10;;;;;;5085566;28;20454;-66
2022/07/27 03:02:30;;;;;;;4.63;4.23;;;33.40;58.20;;;;;;5066544;28;20462;-66
2022/07/27 03:05:00;;;;;;;4.40;4.00;;;33.30;57.90;;;;;;5066311;28;20487;-66
2022/07/27 03:07:31;;;;;;;4.40;4.10;;;33.20;59.80;;;;;;5060663;28;20473;-67
2022/07/27 03:10:04;;;;;;;4.57;4.17;;;33.00;61.10;;;;;;5065002;28;20471;-66
2022/07/27 03:12:35;;;;;;;4.70;4.40;;;32.80;62.30;;;;;;5061570;28;20478;-66
2022/07/27 03:15:06;;;;;;;4.20;3.90;;;32.60;63.00;;;;;;5065168;28;20473;-67
2022/07/27 03:17:37;;;;;;;4.57;4.27;;;32.40;62.80;;;;;;5068439;28;20470;-67
2022/07/27 03:20:09;;;;;;;4.43;4.10;;;32.30;64.20;;;;;;5063698;28;20450;-65
2022/07/27 03:22:40;;;;;;;4.47;4.17;;;32.10;65.60;;;;;;5079606;28;20457;-65
2022/07/27 03:25:12;;;;;;;4.87;4.10;;;32.00;65.40;;;;;;5063773;28;20493;-66
2022/07/27 03:27:43;;;;;;;5.67;4.07;;;31.80;68.80;;;;;;5061403;28;20468;-66
2022/07/27 03:30:14;;;;;;;4.53;4.13;;;31.70;70.00;;;;;;5062944;28;20467;-66
2022/07/27 03:32:47;;;;;;;4.60;4.30;;;31.60;72.60;;;;;;5063668;28;20457;-67
2022/07/27 03:35:18;;;;;;;4.53;4.23;;;31.50;70.70;;;;;;5062291;28;20464;-66
2022/07/27 03:37:49;;;;;;;5.00;4.60;;;31.30;70.00;;;;;;5063593;28;20475;-66
2022/07/27 03:40:21;;;;;;;5.17;4.77;;;31.20;73.10;;;;;;5057730;28;20458;-66
2022/07/27 03:42:52;;;;;;;4.90;4.53;;;31.10;71.20;;;;;;5064125;28;20478;-65
2022/07/27 03:45:27;;;;;;;4.10;3.80;;;31.10;71.60;;;;;;5059569;28;20496;-65
2022/07/27 03:47:58;;;;;;;4.87;4.53;;;31.00;71.10;;;;;;5064170;28;20489;-66
2022/07/27 03:50:29;;;;;;;4.90;4.50;;;30.90;71.20;;;;;;5077278;28;20457;-65
2022/07/27 03:52:59;;;;;;;4.20;3.90;;;30.80;71.30;;;;;;5063415;28;20897;-64
2022/07/27 03:55:32;;;;;;;5.07;4.67;;;30.60;73.80;;;;;;5062490;28;20472;-65
2022/07/27 03:58:03;;;;;;;4.50;4.10;;;30.50;76.80;;;;;;5063284;28;20463;-65
2022/07/27 04:00:36;;;;;;;5.00;4.60;;;30.30;79.50;;;;;;5061692;28;20488;-66
2022/07/27 04:03:07;;;;;;;4.40;4.10;;;30.10;78.90;;;;;;5068892;28;20524;-67
2022/07/27 04:05:38;;;;;;;4.40;4.10;;;30.00;80.50;;;;;;5061037;28;20490;-65
2022/07/27 04:08:09;;;;;;;4.10;3.80;;;29.80;80.80;;;;;;5068034;28;20464;-66
2022/07/27 04:10:42;;;;;;;4.97;4.57;;;29.70;82.70;;;;;;5063667;28;20542;-65
2022/07/27 04:13:14;;;;;;;4.90;4.50;;;29.60;80.30;;;;;;5075216;28;20937;-66
2022/07/27 04:15:46;;;;;;;4.40;4.00;;;29.50;80.90;;;;;;5062774;28;20535;-65
2022/07/27 04:18:17;;;;;;;4.43;4.10;;;29.40;83.00;;;;;;5073196;28;20468;-67
2022/07/27 04:20:48;;;;;;;4.10;3.70;;;29.30;86.80;;;;;;5065040;28;20441;-67
2022/07/27 04:23:18;;;;;;;4.10;3.80;;;29.20;84.60;;;;;;5073977;28;20489;-65
2022/07/27 04:25:51;;;;;;;3.80;3.50;;;29.00;83.10;;;;;;5064537;28;20498;-66
2022/07/27 04:28:23;;;;;;;4.80;4.30;;;28.90;82.30;;;;;;5061528;28;20471;-66
2022/07/27 04:30:55;;;;;;;4.97;3.73;;;28.90;82.00;;;;;;5049954;28;20487;-66
2022/07/27 04:33:25;;;;;;;3.67;3.37;;;28.90;78.10;;;;;;5066023;28;20466;-65
2022/07/27 04:35:56;;;;;;;5.73;3.90;;;28.90;78.80;;;;;;5063162;28;21017;-66
2022/07/27 04:38:27;;;;;;;3.90;3.60;;;29.00;78.90;;;;;;5064069;28;20457;-66
2022/07/27 04:40:59;;;;;;;4.23;3.83;;;29.00;77.80;;;;;;5063200;28;20462;-65
2022/07/27 04:43:30;;;;;;;3.70;3.40;;;29.00;77.00;;;;;;5062035;28;20534;-65
2022/07/27 04:46:04;;;;;;;4.00;3.70;;;28.90;77.50;;;;;;5071843;28;20484;-66
2022/07/27 04:48:40;;;;;;;3.97;3.60;;;28.90;79.00;;;;;;5065155;28;20631;-65
2022/07/27 04:51:19;;;;;;;4.77;3.60;;;28.70;78.90;;;;;;5061905;28;20470;-65
2022/07/27 04:53:49;;;;;;;4.50;4.10;;;28.60;79.10;;;;;;5059393;28;20473;-65
2022/07/27 04:56:24;;;;;;;4.13;3.83;;;28.40;80.90;;;;;;5067336;28;20504;-65
2022/07/27 04:58:55;;;;;;;3.77;3.47;;;28.20;82.30;;;;;;5072242;28;20466;-65
2022/07/27 05:01:25;;;;;;;4.13;3.70;;;28.10;81.50;;;;;;5061272;28;22291;-66
2022/07/27 05:04:04;;;;;;;3.80;3.40;;;28.00;82.10;;;;;;5065398;28;20447;-65
2022/07/27 05:06:37;;;;;;;3.70;3.40;;;27.90;85.10;;;;;;5059698;28;20488;-65
2022/07/27 05:09:08;;;;;;;3.70;3.37;;;27.80;83.60;;;;;;5069758;28;20464;-65
2022/07/27 05:11:40;;;;;;;4.30;3.70;;;27.70;86.10;;;;;;5057551;28;20556;-65
2022/07/27 05:14:20;;;;;;;3.60;3.40;;;27.60;85.70;;;;;;5064932;28;20479;-66
2022/07/27 05:16:51;;;;;;;4.23;3.83;;;27.50;88.40;;;;;;5061982;28;20460;-66
2022/07/27 05:19:22;;;;;;;4.00;3.70;;;27.40;87.90;;;;;;5062195;28;20446;-66
2022/07/27 05:22:09;;;;;;;4.60;4.20;;;27.40;88.90;;;;;;5060521;28;20520;-65
2022/07/27 05:24:40;;;;;;;3.93;3.60;;;27.30;85.50;;;;;;5063552;28;20471;-67
2022/07/27 05:27:12;;;;;;;4.17;3.87;;;27.20;87.90;;;;;;5063267;28;20496;-67
2022/07/27 05:29:43;;;;;;;3.97;3.60;;;27.10;86.20;;;;;;5062378;28;20482;-66
2022/07/27 05:32:14;;;;;;;3.80;3.40;;;27.00;86.30;;;;;;5061080;28;20455;-66
2022/07/27 05:34:45;;;;;;;3.57;3.30;;;27.00;86.40;;;;;;5061877;28;20529;-67
2022/07/27 05:37:15;;;;;;;4.10;3.80;;;26.80;86.30;;;;;;5061344;28;20450;-68
2022/07/27 05:39:46;;;;;;;4.30;3.90;;;26.80;87.00;;;;;;5063790;28;20456;-66
2022/07/27 05:42:18;;;;;;;3.43;3.10;;;26.80;88.60;;;;;;5065470;28;20467;-67
2022/07/27 05:44:55;;;;;;;3.60;3.30;;;26.70;88.70;;;;;;5066732;28;20442;-66
2022/07/27 05:47:26;;;;;;;3.70;3.40;;;26.70;89.20;;;;;;5060748;28;20499;-66
2022/07/27 05:49:57;;;;;;;3.80;3.50;;;26.60;90.80;;;;;;5064862;28;20598;-66
2022/07/27 05:52:28;;;;;;;4.00;3.70;;;26.50;91.00;;;;;;5059639;28;20451;-67
2022/07/27 05:54:59;;;;;;;4.20;3.90;;;26.30;90.20;;;;;;5061825;28;20455;-67
2022/07/27 05:57:31;;;;;;;3.63;3.33;;;26.30;90.50;;;;;;5058927;28;20482;-67
2022/07/27 06:00:02;;;;;;;3.80;3.50;;;26.30;91.20;;;;;;5080648;28;20460;-66
2022/07/27 06:02:33;;;;;;;4.00;3.60;;;26.20;91.10;;;;;;5061106;28;20477;-67
2022/07/27 06:05:04;;;;;;;4.10;3.70;;;26.20;91.70;;;;;;5058939;28;20459;-67
2022/07/27 06:10:25;;;;;;;3.73;3.40;;;26.00;93.90;;;;;;5059931;28;20473;-66
2022/07/27 06:12:58;;;;;;;3.70;3.40;;;25.90;94.60;;;;;;5065487;28;20469;-66
2022/07/27 06:15:29;;;;;;;4.13;3.83;;;25.90;93.30;;;;;;5064387;28;20525;-66
2022/07/27 06:18:00;;;;;;;4.47;3.60;;;25.80;92.20;;;;;;5070695;28;20454;-66
2022/07/27 06:20:31;;;;;;;3.47;3.17;;;26.00;91.70;;;;;;5063191;28;20434;-66
2022/07/27 06:23:03;;;;;;;3.93;3.47;;;26.10;91.70;;;;;;5062752;28;20466;-66
2022/07/27 06:25:37;;;;;;;3.40;3.10;;;26.00;92.30;;;;;;5062695;28;20908;-67
2022/07/27 06:28:10;;;;;;;4.13;3.20;;;26.00;92.70;;;;;;5061289;28;20499;-67
2022/07/27 06:30:41;;;;;;;3.40;3.10;;;26.00;92.40;;;;;;5060176;28;20485;-67
2022/07/27 06:33:12;;;;;;;4.00;3.67;;;25.80;92.70;;;;;;5051264;28;20976;-67
2022/07/27 06:35:43;;;;;;;3.50;3.20;;;25.80;92.90;;;;;;5059408;28;20453;-65
2022/07/27 06:38:15;;;;;;;4.17;3.87;;;25.70;93.80;;;;;;5054632;28;20534;-67
2022/07/27 06:40:46;;;;;;;3.63;3.33;;;25.50;95.20;;;;;;5060745;28;20439;-66
2022/07/27 06:43:18;;;;;;;3.53;3.23;;;25.40;96.30;;;;;;5061919;28;20455;-67
2022/07/27 06:45:50;;;;;;;4.07;3.77;;;25.30;97.30;;;;;;5060139;28;20465;-65
2022/07/27 06:48:21;;;;;;;3.50;3.20;;;25.30;96.30;;;;;;5070479;28;20487;-67
2022/07/27 06:50:52;;;;;;;3.63;3.33;;;25.10;96.80;;;;;;5075055;28;20459;-67
2022/07/27 06:53:23;;;;;;;3.80;3.43;;;25.00;97.30;;;;;;5062424;28;20537;-67
2022/07/27 06:55:57;;;;;;;4.63;3.63;;;25.00;97.50;;;;;;5060670;28;20477;-67
2022/07/27 06:58:29;;;;;;;3.60;3.30;;;24.90;97.90;;;;;;5061095;28;20527;-66
2022/07/27 07:01:01;;;;;;;2.90;2.70;;;24.90;98.00;;;;;;5058530;28;20464;-67
2022/07/27 07:03:31;;;;;;;4.90;3.10;;;24.80;98.30;;;;;;5060764;28;20464;-67
2022/07/27 07:06:02;;;;;;;3.37;3.07;;;24.80;98.90;;;;;;5059867;28;20449;-67
2022/07/27 07:08:33;;;;;;;3.50;3.23;;;24.70;99.30;;;;;;5061288;28;20491;-66
2022/07/27 07:11:04;;;;;;;3.60;3.30;;;24.70;99.90;;;;;;5062155;28;20792;-66
2022/07/27 07:13:36;;;;;;;4.00;3.70;;;24.70;99.90;;;;;;5058037;28;20462;-66
2022/07/27 07:16:13;;;;;;;3.97;3.57;;;24.60;99.90;;;;;;5058557;28;20457;-66
2022/07/27 07:18:44;;;;;;;3.83;3.40;;;24.50;99.90;;;;;;5057505;28;20469;-66
2022/07/27 07:21:21;;;;;;;3.00;2.80;;;24.50;99.90;;;;;;5054068;28;20488;-67
2022/07/27 07:23:51;;;;;;;3.37;3.00;;;24.40;99.90;;;;;;5079644;28;20451;-66
2022/07/27 07:26:22;;;;;;;3.80;3.50;;;24.40;99.90;;;;;;5057572;28;20456;-66
2022/07/27 07:28:54;;;;;;;3.87;3.10;;;24.40;99.90;;;;;;5049586;28;20491;-66
2022/07/27 07:31:25;;;;;;;3.03;2.60;;;24.30;99.90;;;;;;5062687;28;20469;-67
2022/07/27 07:33:56;;;;;;;3.73;3.43;;;24.20;99.90;;;;;;5060715;28;20469;-67
2022/07/27 07:36:27;;;;;;;4.37;3.60;;;24.20;99.90;;;;;;5062957;28;20923;-67
2022/07/27 07:38:58;;;;;;;3.30;3.00;;;24.20;99.90;;;;;;5062350;28;20818;-67
2022/07/27 07:41:29;;;;;;;3.70;3.40;;;24.10;99.90;;;;;;5068354;28;20455;-67
2022/07/27 07:44:02;;;;;;;3.40;3.10;;;24.00;99.90;;;;;;5084918;28;20446;-66
2022/07/27 07:46:33;;;;;;;3.50;3.20;;;24.00;99.90;;;;;;5065075;28;20464;-67
2022/07/27 07:49:04;;;;;;;3.80;3.50;;;24.00;99.90;;;;;;5064261;28;20480;-67
2022/07/27 07:51:35;;;;;;;3.60;3.30;;;23.90;99.90;;;;;;5062985;28;20530;-67
2022/07/27 07:54:06;;;;;;;3.30;3.00;;;23.80;99.90;;;;;;5065678;28;20563;-66
2022/07/27 07:56:37;;;;;;;4.97;4.40;;;23.80;99.90;;;;;;5064800;28;20494;-66
2022/07/27 07:59:09;;;;;;;4.00;3.60;;;23.80;99.90;;;;;;5064885;28;20491;-66
2022/07/27 08:01:40;;;;;;;3.90;3.50;;;23.80;99.90;;;;;;5068260;28;20472;-67
2022/07/27 08:04:11;;;;;;;4.20;3.43;;;23.80;99.90;;;;;;5070171;28;20522;-67
2022/07/27 08:06:42;;;;;;;3.40;3.10;;;23.80;99.90;;;;;;5073679;28;20490;-67
2022/07/27 08:09:15;;;;;;;3.03;2.73;;;23.70;99.90;;;;;;5065316;28;20460;-67
2022/07/27 08:11:46;;;;;;;3.70;3.40;;;23.60;99.90;;;;;;5063307;28;20484;-66
2022/07/27 08:14:18;;;;;;;4.00;3.60;;;23.70;99.90;;;;;;5058286;28;20465;-66
2022/07/27 08:16:49;;;;;;;3.73;2.93;;;23.60;99.90;;;;;;5067187;28;20449;-66
2022/07/27 08:19:20;;;;;;;3.57;3.27;;;23.50;99.90;;;;;;5057892;28;20461;-67
2022/07/27 08:21:51;;;;;;;3.60;3.27;;;23.50;99.90;;;;;;5065103;28;20465;-66
2022/07/27 08:24:21;;;;;;;4.17;3.77;;;23.40;99.90;;;;;;5064069;28;20460;-65
2022/07/27 08:26:52;;;;;;;3.40;3.10;;;23.30;99.90;;;;;;5063392;28;20479;-66
2022/07/27 08:29:25;;;;;;;4.10;3.60;;;23.40;99.90;;;;;;5047231;28;20477;-66
2022/07/27 08:32:06;;;;;;;3.83;3.27;;;23.30;99.90;;;;;;5065445;28;20463;-66
2022/07/27 08:34:37;;;;;;;4.17;3.77;;;23.20;99.90;;;;;;5064731;28;20472;-67
2022/07/27 08:37:07;;;;;;;3.93;3.53;;;23.30;99.90;;;;;;5061480;28;20464;-66
2022/07/27 08:39:44;;;;;;;5.30;3.90;;;23.20;99.90;;;;;;5064130;28;20484;-67
2022/07/27 08:42:35;;;;;;;3.83;3.53;;;23.10;99.90;;;;;;5067530;28;20467;-67
2022/07/27 08:45:09;;;;;;;3.30;3.00;;;23.10;99.90;;;;;;5063319;28;20452;-67
2022/07/27 08:47:46;;;;;;;4.53;4.13;;;23.10;99.90;;;;;;5063513;28;20488;-66
2022/07/27 08:50:24;;;;;;;3.90;3.60;;;23.00;99.90;;;;;;5066749;28;20476;-67
2022/07/27 08:53:03;;;;;;;3.53;3.23;;;23.00;99.90;;;;;;5062831;28;20456;-67
2022/07/27 08:55:36;;;;;;;3.70;3.40;;;23.00;99.90;;;;;;5062111;28;20488;-67
2022/07/27 08:58:08;;;;;;;4.37;3.83;;;22.80;99.90;;;;;;5075090;28;20459;-66
2022/07/27 09:00:42;;;;;;;3.60;3.30;;;22.80;99.90;;;;;;5064584;28;20475;-67
2022/07/27 09:03:14;;;;;;;3.87;3.47;;;22.80;99.90;;;;;;5062867;28;20460;-66
2022/07/27 09:05:50;;;;;;;4.07;3.40;;;22.70;99.90;;;;;;5061737;28;20468;-67
2022/07/27 09:08:24;;;;;;;3.43;3.13;;;22.70;99.90;;;;;;5063412;28;20492;-66
2022/07/27 09:10:56;;;;;;;3.93;3.37;;;22.70;99.90;;;;;;5062470;28;20457;-66
2022/07/27 09:13:29;;;;;;;3.70;3.40;;;22.60;99.90;;;;;;5071772;28;20472;-66
2022/07/27 09:16:03;;;;;;;3.90;3.60;;;22.60;99.90;;;;;;5063632;28;20468;-67
2022/07/27 09:18:48;;;;;;;3.67;3.37;;;22.50;99.90;;;;;;5063065;28;20506;-66
2022/07/27 09:21:20;;;;;;;3.33;3.03;;;22.40;99.90;;;;;;5069564;28;20453;-66
2022/07/27 09:23:53;;;;;;;4.23;3.50;;;22.40;99.90;;;;;;5062521;28;20900;-67
2022/07/27 09:26:25;;;;;;;3.93;3.60;;;22.40;99.90;;;;;;5061060;28;20770;-66
2022/07/27 09:29:05;;;;;;;4.37;3.07;;;22.30;99.90;;;;;;5048514;28;20493;-66
2022/07/27 09:31:45;;;;;;;3.87;3.57;;;22.30;99.90;;;;;;5072353;28;20452;-66
2022/07/27 09:34:29;;;;;;;4.87;3.97;;;22.20;99.90;;;;;;5062164;28;20468;-66
2022/07/27 09:37:02;;;;;;;4.07;3.77;;;22.10;99.90;;;;;;5061344;28;20464;-66
2022/07/27 09:39:34;;;;;;;3.37;3.17;;;22.10;99.90;;;;;;5059476;28;20873;-66
2022/07/27 09:42:05;;;;;;;4.03;3.60;;;22.10;99.90;;;;;;5071590;28;20973;-66
2022/07/27 09:44:38;;;;;;;4.03;3.67;;;22.00;99.90;;;;;;5065782;28;20468;-66
2022/07/27 09:47:25;;;;;;;3.93;3.63;;;22.00;99.90;;;;;;5061914;28;20456;-66
2022/07/27 09:49:58;;;;;;;4.50;3.97;;;22.00;99.90;;;;;;5073611;28;20518;-66
2022/07/27 09:52:31;;;;;;;3.43;3.23;;;21.90;99.90;;;;;;5060371;28;20472;-66
2022/07/27 09:55:05;;;;;;;4.43;3.97;;;21.70;99.90;;;;;;5064783;28;20465;-67
2022/07/27 09:57:53;;;;;;;4.20;3.80;;;21.70;99.90;;;;;;5060464;28;20488;-66
2022/07/27 10:00:25;;;;;;;4.40;3.83;;;21.70;99.90;;;;;;5060260;28;20469;-67
2022/07/27 10:02:58;;;;;;;3.97;3.57;;;21.80;99.90;;;;;;5074114;28;20524;-66
2022/07/27 10:05:29;;;;;;;5.00;3.90;;;21.80;99.90;;;;;;5061426;28;20559;-68
2022/07/27 10:08:00;;;;;;;3.70;3.40;;;21.70;99.90;;;;;;5062386;28;20531;-66
2022/07/27 10:10:30;;;;;;;4.70;3.77;;;21.70;99.90;;;;;;5061609;28;20464;-66
2022/07/27 10:13:01;;;;;;;5.10;4.57;;;21.60;99.90;;;;;;5061775;28;20467;-66
2022/07/27 10:15:32;;;;;;;4.77;3.97;;;21.60;99.90;;;;;;5065565;28;21003;-66
2022/07/27 10:18:11;;;;;;;3.70;3.40;;;21.50;99.90;;;;;;5072207;28;20959;-66
2022/07/27 10:20:45;;;;;;;5.70;3.87;;;21.50;99.90;;;;;;5058544;28;20456;-66
2022/07/27 10:23:28;;;;;;;3.90;3.60;;;21.50;99.90;;;;;;5061428;28;20451;-66
2022/07/27 10:26:21;;;;;;;3.80;3.50;;;21.50;99.90;;;;;;5061112;28;20551;-66
2022/07/27 10:28:53;;;;;;;4.63;4.23;;;21.40;99.90;;;;;;5061329;28;20519;-66
2022/07/27 10:31:26;;;;;;;4.20;3.60;;;21.30;99.90;;;;;;5061637;28;20439;-66
2022/07/27 10:34:00;;;;;;;3.80;3.40;;;21.20;99.90;;;;;;5061997;28;20426;-66
2022/07/27 10:36:49;;;;;;;3.87;3.53;;;21.30;99.90;;;;;;5059327;28;20464;-66
2022/07/27 10:39:34;;;;;;;4.50;4.10;;;21.20;99.90;;;;;;5045470;28;20448;-66
2022/07/27 10:42:28;;;;;;;4.70;4.30;;;21.20;99.90;;;;;;5064975;28;20470;-66
2022/07/27 10:45:07;;;;;;;5.07;4.10;;;21.20;99.90;;;;;;5064245;28;20459;-66
2022/07/27 10:47:41;;;;;;;5.00;4.10;;;21.10;99.90;;;;;;5061065;28;20781;-66
2022/07/27 10:50:47;;;;;;;4.10;3.80;;;21.10;99.90;;;;;;5061172;28;20491;-66
2022/07/27 10:53:32;;;;;;;4.47;4.17;;;21.10;99.90;;;;;;4975391;28;20963;-66
2022/07/27 10:56:47;;;;;;;6.10;3.80;;;21.00;99.90;;;;;;4978217;28;20476;-66
2022/07/27 10:59:50;;;;;;;4.63;4.23;;;21.00;99.90;;;;;;4979561;28;20498;-66
2022/07/27 11:02:43;;;;;;;5.30;4.10;;;20.90;99.90;;;;;;4984148;28;20531;-66
2022/07/27 11:05:14;;;;;;;5.00;4.50;;;20.80;99.90;;;;;;4979748;28;20464;-66
2022/07/27 11:08:06;;;;;;;4.50;4.10;;;20.80;99.90;;;;;;4978861;28;20518;-66
2022/07/27 11:10:57;;;;;;;4.00;3.70;;;20.80;99.90;;;;;;4979447;28;20480;-66
2022/07/27 11:13:29;;;;;;;4.17;3.77;;;20.80;99.90;;;;;;4982446;28;20468;-66
2022/07/27 11:16:09;;;;;;;4.43;4.07;;;20.70;99.90;;;;;;4977275;28;20484;-66
2022/07/27 11:19:00;;;;;;;6.00;4.37;;;20.70;99.90;;;;;;4985447;28;20456;-66
2022/07/27 11:21:34;;;;;;;4.60;4.17;;;20.80;99.90;;;;;;4995307;28;20470;-66
2022/07/27 11:24:12;;;;;;;5.70;4.87;;;20.70;99.90;;;;;;4984752;28;20421;-66
2022/07/27 11:26:45;;;;;;;4.63;4.23;;;20.60;99.90;;;;;;4982315;28;20687;-66
2022/07/27 11:29:17;;;;;;;4.10;3.70;;;20.60;99.90;;;;;;5033765;28;20492;-66
2022/07/27 11:31:50;;;;;;;5.93;3.63;;;20.50;99.90;;;;;;5062213;28;20467;-66
2022/07/27 11:34:29;;;;;;;4.03;3.50;;;20.50;99.90;;;;;;5063644;28;20456;-67
2022/07/27 11:37:01;;;;;;;5.00;4.50;;;20.50;99.90;;;;;;5063169;28;20488;-67
2022/07/27 11:39:35;;;;;;;4.97;4.30;;;20.50;99.90;;;;;;5071519;28;20444;-66
2022/07/27 11:42:36;;;;;;;4.00;3.70;;;20.50;99.90;;;;;;5068024;28;20453;-66
2022/07/27 11:45:08;;;;;;;4.47;4.07;;;20.40;99.90;;;;;;5066386;28;20433;-66
2022/07/27 11:47:39;;;;;;;3.87;3.57;;;20.40;99.90;;;;;;5068352;28;20460;-66
2022/07/27 11:50:12;;;;;;;4.90;3.77;;;20.40;99.90;;;;;;5066653;28;20555;-66
2022/07/27 11:52:43;;;;;;;5.30;4.10;;;20.40;99.90;;;;;;5069063;28;20499;-66
2022/07/27 11:55:15;;;;;;;5.00;4.23;;;20.30;99.90;;;;;;5065109;28;20441;-66
2022/07/27 11:57:46;;;;;;;4.07;3.67;;;20.20;99.90;;;;;;5074759;28;20468;-66
2022/07/27 12:00:17;;;;;;;4.03;3.63;;;20.20;99.90;;;;;;5063501;28;20466;-66
2022/07/27 12:02:51;;;;;;;3.80;3.50;;;20.20;99.90;;;;;;5063067;28;20472;-66
2022/07/27 12:05:22;;;;;;;4.20;3.80;;;20.20;99.90;;;;;;5064113;28;20950;-66
2022/07/27 12:07:54;;;;;;;4.27;3.83;;;20.10;99.90;;;;;;5065285;28;20794;-66
2022/07/27 12:10:27;;;;;;;4.20;3.80;;;20.10;99.90;;;;;;5077343;28;20495;-67
2022/07/27 12:13:04;;;;;;;5.20;4.70;;;20.10;99.90;;;;;;5064624;28;20535;-66
2022/07/27 12:15:36;;;;;;;5.50;3.97;;;20.10;99.90;;;;;;5066814;28;20484;-66
2022/07/27 12:18:15;;;;;;;5.00;4.03;;;20.10;99.90;;;;;;5071798;28;20474;-66
2022/07/27 12:20:47;;;;;;;4.63;3.97;;;20.10;99.90;;;;;;5069039;28;20935;-66
2022/07/27 12:23:18;;;;;;;6.03;3.93;;;20.10;99.90;;;;;;5082127;28;20458;-66
2022/07/27 12:25:51;;;;;;;5.03;4.10;;;20.10;99.90;;;;;;5058148;28;20982;-66
2022/07/27 12:28:26;;;;;;;4.30;3.90;;;20.00;99.90;;;;;;5063208;28;20456;-66
2022/07/27 12:30:57;;;;;;;4.80;4.30;;;19.90;99.90;;;;;;5062866;28;20989;-66
2022/07/27 12:33:30;;;;;;;4.90;4.50;;;19.90;99.90;;;;;;5069354;28;20464;-66
2022/07/27 12:36:02;;;;;;;4.20;3.27;;;19.90;99.90;;;;;;5062966;28;20452;-66
2022/07/27 12:38:39;;;;;;;4.47;3.77;;;19.90;99.90;;;;;;5073552;28;20818;-66
2022/07/27 12:41:23;;;;;;;4.53;4.13;;;19.80;99.90;;;;;;5061342;28;20460;-66
2022/07/27 12:44:09;;;;;;;6.53;4.13;;;19.90;99.90;;;;;;5064775;28;20456;-68
2022/07/27 12:46:53;;;;;;;4.27;3.87;;;19.90;99.90;;;;;;5062074;28;20547;-66
2022/07/27 12:49:27;;;;;;;5.70;4.20;;;19.80;99.90;;;;;;5064069;28;20452;-66
2022/07/27 12:52:06;;;;;;;3.90;3.60;;;19.70;99.90;;;;;;5055901;28;20444;-66
2022/07/27 12:54:37;;;;;;;5.23;3.90;;;19.80;99.90;;;;;;5056461;28;20922;-66
2022/07/27 12:57:10;;;;;;;4.43;4.03;;;19.70;99.90;;;;;;5079992;28;20484;-66
2022/07/27 12:59:41;;;;;;;4.17;3.80;;;19.70;99.90;;;;;;5071175;28;20479;-66
2022/07/27 13:02:12;;;;;;;4.47;4.07;;;19.60;99.90;;;;;;5063608;28;20456;-67
2022/07/27 13:04:43;;;;;;;4.50;4.10;;;19.70;99.90;;;;;;5066212;28;20430;-66
2022/07/27 13:07:14;;;;;;;4.27;3.73;;;19.70;99.90;;;;;;5065437;28;20464;-66
2022/07/27 13:09:46;;;;;;;5.87;4.43;;;19.70;99.90;;;;;;5063536;28;20499;-66
2022/07/27 13:12:35;;;;;;;3.90;3.50;;;19.60;99.90;;;;;;5058730;28;20493;-66
2022/07/27 13:15:08;;;;;;;4.60;4.20;;;19.70;99.90;;;;;;5065406;28;20434;-66
2022/07/27 13:17:39;;;;;;;4.23;3.70;;;19.60;99.90;;;;;;5057009;28;20427;-66
2022/07/27 13:20:12;;;;;;;4.43;3.93;;;19.60;99.90;;;;;;5063908;28;20943;-66
2022/07/27 13:22:43;;;;;;;3.57;3.27;;;19.50;99.90;;;;;;5060993;28;20471;-66
2022/07/27 13:25:14;;;;;;;3.97;3.67;;;19.50;99.90;;;;;;5063054;28;20514;-66